createdAt,value
2023-05-21T00:02:21.878Z,57.03
2023-05-21T00:04:51.698Z,56.90
2023-05-21T00:07:20.765Z,56.86
2023-05-21T00:09:49.139Z,56.61
2023-05-21T00:12:17.190Z,56.71
2023-05-21T00:14:45.691Z,56.60
2023-05-21T00:17:13.966Z,56.50
2023-05-21T00:19:42.026Z,56.61
2023-05-21T00:22:10.026Z,56.81
2023-05-21T00:24:38.288Z,56.63
2023-05-21T00:27:06.668Z,56.57
2023-05-21T00:29:34.847Z,56.49
2023-05-21T00:32:04.175Z,56.44
2023-05-21T00:34:32.621Z,56.57
2023-05-21T00:37:02.861Z,56.56
2023-05-21T00:39:31.042Z,56.55
2023-05-21T00:42:00.621Z,56.41
2023-05-21T00:44:34.633Z,56.43
2023-05-21T00:47:03.951Z,56.55
2023-05-21T00:49:32.523Z,56.84
2023-05-21T00:52:01.800Z,56.96
2023-05-21T00:54:30.707Z,57.09
2023-05-21T00:56:59.296Z,56.94
2023-05-21T00:59:27.891Z,57.66
2023-05-21T01:01:57.299Z,58.22
2023-05-21T01:04:26.367Z,58.13
2023-05-21T01:06:56.490Z,58.34
2023-05-21T01:09:26.932Z,58.56
2023-05-21T01:11:56.534Z,58.68
2023-05-21T01:14:25.098Z,58.99
2023-05-21T01:16:54.167Z,58.99
2023-05-21T01:19:24.824Z,59.36
2023-05-21T01:21:59.222Z,59.37
2023-05-21T01:24:27.436Z,59.33
2023-05-21T01:26:55.708Z,59.30
2023-05-21T01:29:23.887Z,59.68
2023-05-21T01:32:04.573Z,59.93
2023-05-21T01:34:56.174Z,60.19
2023-05-21T01:37:36.141Z,60.22
2023-05-21T01:40:32.360Z,60.24
2023-05-21T01:43:03.836Z,60.18
2023-05-21T01:45:33.634Z,60.57
2023-05-21T01:48:03.357Z,61.14
2023-05-21T01:50:32.745Z,61.12
2023-05-21T01:53:06.059Z,60.77
2023-05-21T01:55:34.952Z,61.05
2023-05-21T01:58:03.621Z,61.23
2023-05-21T02:00:32.922Z,61.53
2023-05-21T02:03:01.478Z,61.44
2023-05-21T02:05:30.694Z,61.45
2023-05-21T02:08:01.735Z,61.46
2023-05-21T02:10:30.030Z,61.25
2023-05-21T02:12:59.519Z,61.36
2023-05-21T02:15:27.611Z,61.59
2023-05-21T02:17:56.092Z,61.46
2023-05-21T02:20:24.553Z,61.24
2023-05-21T02:22:52.834Z,61.39
2023-05-21T02:25:21.205Z,61.28
2023-05-21T02:27:53.830Z,61.22
2023-05-21T02:30:22.386Z,61.27
2023-05-21T02:32:51.093Z,61.33
2023-05-21T02:35:19.551Z,61.62
2023-05-21T02:37:48.027Z,62.07
2023-05-21T02:40:16.816Z,61.75
2023-05-21T02:42:45.091Z,61.62
2023-05-21T02:45:15.224Z,62.06
2023-05-21T02:47:44.440Z,61.72
2023-05-21T02:50:15.243Z,61.97
2023-05-21T02:52:47.717Z,61.86
2023-05-21T02:55:15.888Z,61.78
2023-05-21T02:57:44.265Z,62.00
2023-05-21T03:00:13.771Z,61.71
2023-05-21T03:02:43.636Z,61.44
2023-05-21T03:05:12.469Z,61.23
2023-05-21T03:07:42.047Z,61.10
2023-05-21T03:10:11.289Z,61.08
2023-05-21T03:12:39.552Z,60.94
2023-05-21T03:15:08.653Z,60.71
2023-05-21T03:17:36.854Z,60.52
2023-05-21T03:20:05.841Z,60.56
2023-05-21T03:22:35.119Z,60.47
2023-05-21T03:25:03.505Z,60.24
2023-05-21T03:27:32.389Z,60.02
2023-05-21T03:30:01.192Z,59.66
2023-05-21T03:32:29.781Z,59.56
2023-05-21T03:34:58.139Z,59.47
2023-05-21T03:37:26.317Z,59.29
2023-05-21T03:39:54.595Z,59.30
2023-05-21T03:42:22.867Z,59.13
2023-05-21T03:44:53.826Z,59.33
2023-05-21T03:48:02.203Z,59.30
2023-05-21T03:50:31.626Z,59.22
2023-05-21T03:52:59.807Z,59.15
2023-05-21T03:55:27.979Z,59.17
2023-05-21T03:57:57.111Z,58.97
2023-05-21T04:00:25.867Z,58.89
2023-05-21T04:02:54.743Z,58.98
2023-05-21T04:05:23.146Z,58.93
2023-05-21T04:07:51.613Z,58.82
2023-05-21T04:10:19.893Z,58.74
2023-05-21T04:12:52.752Z,58.43
2023-05-21T04:15:21.690Z,58.36
2023-05-21T04:17:50.561Z,58.09
2023-05-21T04:20:19.446Z,57.82
2023-05-21T04:22:47.828Z,57.64
2023-05-21T04:25:16.315Z,57.32
2023-05-21T04:27:47.909Z,57.23
2023-05-21T04:30:16.554Z,56.82
2023-05-21T04:32:46.142Z,56.65
2023-05-21T04:35:15.592Z,56.69
2023-05-21T04:37:46.202Z,56.47
2023-05-21T04:40:18.868Z,56.46
2023-05-21T04:42:48.501Z,56.43
2023-05-21T04:45:18.304Z,56.14
2023-05-21T04:47:48.178Z,55.90
2023-05-21T04:50:16.584Z,55.76
2023-05-21T04:52:45.782Z,55.48
2023-05-21T04:55:14.362Z,55.24
2023-05-21T04:57:42.541Z,54.86
2023-05-21T05:00:12.677Z,54.62
2023-05-21T05:02:43.699Z,54.35
2023-05-21T05:05:12.080Z,54.08
2023-05-21T05:07:40.563Z,53.88
2023-05-21T05:10:09.272Z,53.85
2023-05-21T05:12:37.732Z,54.02
2023-05-21T05:15:07.032Z,54.31
2023-05-21T05:17:35.800Z,54.67
2023-05-21T05:20:05.306Z,54.74
2023-05-21T05:22:33.602Z,54.37
2023-05-21T05:25:01.876Z,54.13
2023-05-21T05:27:30.059Z,53.79
2023-05-21T05:29:58.660Z,53.29
2023-05-21T05:32:26.952Z,51.79
2023-05-21T05:34:56.328Z,50.52
2023-05-21T05:37:24.602Z,50.15
2023-05-21T05:39:53.170Z,49.96
2023-05-21T05:42:21.456Z,49.69
2023-05-21T05:44:49.830Z,49.51
2023-05-21T05:47:18.207Z,49.10
2023-05-21T05:49:46.795Z,49.08
2023-05-21T05:52:15.287Z,49.23
2023-05-21T05:54:43.553Z,49.25
2023-05-21T05:57:11.827Z,48.76
2023-05-21T05:59:40.306Z,48.76
2023-05-21T06:02:08.697Z,48.81
2023-05-21T06:04:36.960Z,49.00
2023-05-21T06:07:05.338Z,49.30
2023-05-21T06:09:33.617Z,49.06
2023-05-21T06:12:01.996Z,48.36
2023-05-21T06:14:30.392Z,48.19
2023-05-21T06:16:58.880Z,47.77
2023-05-21T06:19:27.827Z,47.92
2023-05-21T06:21:56.637Z,47.76
2023-05-21T06:24:24.916Z,47.47
2023-05-21T06:26:53.720Z,47.52
2023-05-21T06:29:22.183Z,47.56
2023-05-21T06:31:50.671Z,47.53
2023-05-21T06:34:18.852Z,47.07
2023-05-21T06:36:47.729Z,45.98
2023-05-21T06:39:15.999Z,45.54
2023-05-21T06:41:44.077Z,45.08
2023-05-21T06:44:25.776Z,44.44
2023-05-21T06:47:15.585Z,44.38
2023-05-21T06:49:45.154Z,44.49
2023-05-21T06:52:13.331Z,44.60
2023-05-21T06:54:42.630Z,44.42
2023-05-21T06:57:11.328Z,43.90
2023-05-21T06:59:39.593Z,44.14
2023-05-21T07:02:07.795Z,44.40
2023-05-21T07:04:36.684Z,44.44
2023-05-21T07:07:05.390Z,44.61
2023-05-21T07:09:34.245Z,45.03
2023-05-21T07:12:02.819Z,45.45
2023-05-21T07:14:31.094Z,45.34
2023-05-21T07:16:59.614Z,45.52
2023-05-21T07:19:28.060Z,45.61
2023-05-21T07:21:57.973Z,44.78
2023-05-21T07:24:27.989Z,44.15
2023-05-21T07:26:56.673Z,43.42
2023-05-21T07:29:25.058Z,42.43
2023-05-21T07:31:53.655Z,41.58
2023-05-21T07:34:22.124Z,40.33
2023-05-21T07:36:50.401Z,40.28
2023-05-21T07:39:18.881Z,39.98
2023-05-21T07:41:46.995Z,39.18
2023-05-21T07:44:16.872Z,39.36
2023-05-21T07:46:46.837Z,39.60
2023-05-21T07:49:17.184Z,39.42
2023-05-21T07:51:46.920Z,40.68
2023-05-21T07:54:16.250Z,41.70
2023-05-21T07:56:44.504Z,41.49
2023-05-21T07:59:18.409Z,41.74
2023-05-21T08:01:47.206Z,42.21
2023-05-21T08:04:15.468Z,41.83
2023-05-21T08:06:44.670Z,42.12
2023-05-21T08:09:13.258Z,42.21
2023-05-21T08:11:42.351Z,41.88
2023-05-21T08:14:11.650Z,41.64
2023-05-21T08:16:40.103Z,41.68
2023-05-21T08:19:08.637Z,42.24
2023-05-21T08:21:37.300Z,42.29
2023-05-21T08:24:06.303Z,42.53
2023-05-21T08:26:34.671Z,42.17
2023-05-21T08:29:03.661Z,42.12
2023-05-21T08:31:32.074Z,41.71
2023-05-21T08:34:00.217Z,40.68
2023-05-21T08:36:38.807Z,39.30
2023-05-21T08:39:13.235Z,37.94
2023-05-21T08:41:49.901Z,37.23
2023-05-21T08:44:23.963Z,36.70
2023-05-21T08:46:55.214Z,36.03
2023-05-21T08:49:27.593Z,36.88
2023-05-21T08:51:58.002Z,37.15
2023-05-21T08:54:28.177Z,37.37
2023-05-21T08:56:58.426Z,37.87
2023-05-21T08:59:27.628Z,38.26
2023-05-21T09:01:57.855Z,37.64
2023-05-21T09:04:32.844Z,37.42
2023-05-21T09:07:03.157Z,36.38
2023-05-21T09:09:55.902Z,34.57
2023-05-21T09:12:25.798Z,34.91
2023-05-21T09:14:54.675Z,34.34
2023-05-21T09:17:28.383Z,33.47
2023-05-21T09:20:12.348Z,33.02
2023-05-21T09:22:44.489Z,33.45
2023-05-21T09:25:15.604Z,31.51
2023-05-21T09:27:44.592Z,31.48
2023-05-21T09:30:15.649Z,31.42
2023-05-21T09:32:46.120Z,30.83
2023-05-21T09:35:15.477Z,31.14
2023-05-21T09:37:47.962Z,31.64
2023-05-21T09:40:23.909Z,31.19
2023-05-21T09:42:54.160Z,31.21
2023-05-21T09:45:23.663Z,31.06
2023-05-21T09:47:54.032Z,30.45
2023-05-21T09:50:28.621Z,30.25
2023-05-21T09:52:57.691Z,30.93
2023-05-21T09:55:26.882Z,30.88
2023-05-21T09:57:55.260Z,29.22
2023-05-21T10:00:27.600Z,29.81
2023-05-21T10:02:57.469Z,29.53
2023-05-21T10:05:28.396Z,28.77
2023-05-21T10:08:04.470Z,27.49
2023-05-21T10:10:33.070Z,27.11
2023-05-21T10:13:07.154Z,26.15
2023-05-21T10:15:39.447Z,26.66
2023-05-21T10:18:10.232Z,27.28
2023-05-21T10:20:39.169Z,27.06
2023-05-21T10:23:08.377Z,27.07
2023-05-21T10:25:37.122Z,26.81
2023-05-21T10:28:07.319Z,25.76
2023-05-21T10:30:37.420Z,25.10
2023-05-21T10:33:06.391Z,24.51
2023-05-21T10:35:36.069Z,24.54
2023-05-21T10:38:05.398Z,24.23
2023-05-21T10:40:36.469Z,22.87
2023-05-21T10:43:14.112Z,23.42
2023-05-21T10:46:19.776Z,23.15
2023-05-21T10:49:17.120Z,23.07
2023-05-21T10:52:09.986Z,23.13
2023-05-21T10:54:54.638Z,23.15
2023-05-21T10:57:45.333Z,22.79
2023-05-21T11:00:16.938Z,23.20
2023-05-21T11:02:46.223Z,23.66
2023-05-21T11:05:14.566Z,23.20
2023-05-21T11:07:57.845Z,23.56
2023-05-21T11:10:40.850Z,23.94
2023-05-21T11:13:16.877Z,24.85
2023-05-21T11:16:01.746Z,25.99
2023-05-21T11:18:36.062Z,25.95
2023-05-21T11:21:28.510Z,25.45
2023-05-21T11:24:08.551Z,26.06
2023-05-21T11:27:04.967Z,25.85
2023-05-21T11:29:44.741Z,25.00
2023-05-21T11:32:15.777Z,26.64
2023-05-21T11:34:48.701Z,26.69
2023-05-21T11:37:32.196Z,26.53
2023-05-21T11:40:19.208Z,26.06
2023-05-21T11:42:51.391Z,25.33
2023-05-21T11:45:21.590Z,25.32
2023-05-21T11:47:51.621Z,25.25
2023-05-21T11:50:20.848Z,25.36
2023-05-21T11:52:50.556Z,25.19
2023-05-21T11:55:26.231Z,25.40
2023-05-21T11:57:55.653Z,25.44
2023-05-21T12:00:24.683Z,24.99
2023-05-21T12:02:54.052Z,25.58
2023-05-21T12:05:23.069Z,25.61
2023-05-21T12:07:51.757Z,25.69
2023-05-21T12:10:24.424Z,24.85
2023-05-21T12:12:56.472Z,23.98
2023-05-21T12:15:26.904Z,23.07
2023-05-21T12:17:56.346Z,22.03
2023-05-21T12:20:27.151Z,22.14
2023-05-21T12:22:56.804Z,22.22
2023-05-21T12:25:25.455Z,22.27
2023-05-21T12:27:58.232Z,20.93
2023-05-21T12:30:27.333Z,20.89
2023-05-21T12:32:58.677Z,20.89
2023-05-21T12:35:27.218Z,21.48
2023-05-21T12:37:56.751Z,21.52
2023-05-21T12:40:37.513Z,21.10
2023-05-21T12:43:06.324Z,21.16
2023-05-21T12:45:35.118Z,21.64
2023-05-21T12:48:03.888Z,21.81
2023-05-21T12:50:34.236Z,22.35
2023-05-21T12:53:02.724Z,23.24
2023-05-21T12:55:31.729Z,23.22
2023-05-21T12:58:09.096Z,25.02
2023-05-21T13:00:43.067Z,25.43
2023-05-21T13:03:11.600Z,25.04
2023-05-21T13:05:42.735Z,25.06
2023-05-21T13:08:11.470Z,25.81
2023-05-21T13:10:40.084Z,27.11
2023-05-21T13:13:08.385Z,28.09
2023-05-21T13:15:36.697Z,29.73
2023-05-21T13:18:05.149Z,30.68
2023-05-21T13:20:33.515Z,30.53
2023-05-21T13:23:03.505Z,30.52
2023-05-21T13:25:33.877Z,30.88
2023-05-21T13:28:05.285Z,31.13
2023-05-21T13:30:33.996Z,31.18
2023-05-21T13:33:03.091Z,30.72
2023-05-21T13:35:32.512Z,30.47
2023-05-21T13:38:00.833Z,30.79
2023-05-21T13:40:29.358Z,31.11
2023-05-21T13:42:57.836Z,30.42
2023-05-21T13:45:29.469Z,30.51
2023-05-21T13:47:58.525Z,30.82
2023-05-21T13:50:27.570Z,29.84
2023-05-21T13:52:55.959Z,30.23
2023-05-21T13:55:24.126Z,30.64
2023-05-21T13:57:52.403Z,30.81
2023-05-21T14:00:20.710Z,30.98
2023-05-21T14:02:50.547Z,31.62
2023-05-21T14:05:19.172Z,31.69
2023-05-21T14:07:48.592Z,32.23
2023-05-21T14:10:17.268Z,31.50
2023-05-21T14:12:46.371Z,31.20
2023-05-21T14:15:16.300Z,30.36
2023-05-21T14:17:44.620Z,30.52
2023-05-21T14:20:13.242Z,29.90
2023-05-21T14:22:41.527Z,29.86
2023-05-21T14:25:09.937Z,29.69
2023-05-21T14:27:38.572Z,30.13
2023-05-21T14:30:07.803Z,29.95
2023-05-21T14:32:36.012Z,29.84
2023-05-21T14:35:05.083Z,30.62
2023-05-21T14:37:33.541Z,29.83
2023-05-21T14:40:02.225Z,30.40
2023-05-21T14:42:30.824Z,30.62
2023-05-21T14:44:59.281Z,30.52
2023-05-21T14:47:27.363Z,31.37
2023-05-21T14:49:56.134Z,31.65
2023-05-21T14:52:24.304Z,31.16
2023-05-21T14:54:52.493Z,31.34
2023-05-21T14:57:21.319Z,31.44
2023-05-21T14:59:49.643Z,31.64
2023-05-21T15:02:17.843Z,31.47
2023-05-21T15:04:46.191Z,31.38
2023-05-21T15:07:14.681Z,31.05
2023-05-21T15:09:42.956Z,31.14
2023-05-21T15:12:11.340Z,31.85
2023-05-21T15:14:41.152Z,31.31
2023-05-21T15:17:09.424Z,30.31
2023-05-21T15:19:37.893Z,30.81
2023-05-21T15:22:06.202Z,30.77
2023-05-21T15:24:34.463Z,30.64
2023-05-21T15:27:02.842Z,31.30
2023-05-21T15:29:31.460Z,30.33
2023-05-21T15:32:01.376Z,30.67
2023-05-21T15:34:29.735Z,31.11
2023-05-21T15:36:58.507Z,31.46
2023-05-21T15:39:27.595Z,31.34
2023-05-21T15:41:55.976Z,31.96
2023-05-21T15:44:26.156Z,32.88
2023-05-21T15:46:55.052Z,32.73
2023-05-21T15:49:23.338Z,33.28
2023-05-21T15:51:51.852Z,34.04
2023-05-21T15:54:20.132Z,34.49
2023-05-21T15:56:48.507Z,35.04
2023-05-21T15:59:16.893Z,35.31
2023-05-21T16:01:45.371Z,35.50
2023-05-21T16:04:14.186Z,36.10
2023-05-21T16:06:42.741Z,36.66
2023-05-21T16:09:11.129Z,37.33
2023-05-21T16:11:39.697Z,37.92
2023-05-21T16:14:07.872Z,38.66
2023-05-21T16:16:36.181Z,38.94
2023-05-21T16:19:04.556Z,39.41
2023-05-21T16:21:33.250Z,39.94
2023-05-21T16:24:01.801Z,40.17
2023-05-21T16:26:30.388Z,40.38
2023-05-21T16:28:58.939Z,40.61
2023-05-21T16:31:27.585Z,40.79
2023-05-21T16:33:56.138Z,40.75
2023-05-21T16:36:24.307Z,41.15
2023-05-21T16:38:52.483Z,41.19
2023-05-21T16:41:22.001Z,41.23
2023-05-21T16:43:52.726Z,41.14
2023-05-21T16:46:21.879Z,41.45
2023-05-21T16:48:50.296Z,41.69
2023-05-21T16:51:18.576Z,41.80
2023-05-21T16:53:46.821Z,42.16
2023-05-21T16:56:15.045Z,42.54
2023-05-21T16:58:43.298Z,43.09
2023-05-21T17:01:11.659Z,43.57
2023-05-21T17:03:43.103Z,43.50
2023-05-21T17:06:11.830Z,43.61
2023-05-21T17:08:40.099Z,43.87
2023-05-21T17:11:08.916Z,44.19
2023-05-21T17:13:37.062Z,44.22
2023-05-21T17:16:05.363Z,43.90
2023-05-21T17:18:33.616Z,44.14
2023-05-21T17:21:02.002Z,44.89
2023-05-21T17:23:30.266Z,44.89
2023-05-21T17:25:58.548Z,45.68
2023-05-21T17:28:26.685Z,46.29
2023-05-21T17:30:55.008Z,46.59
2023-05-21T17:33:24.011Z,46.42
2023-05-21T17:35:52.275Z,47.33
2023-05-21T17:38:20.549Z,47.39
2023-05-21T17:40:51.685Z,48.13
2023-05-21T17:43:19.862Z,48.86
2023-05-21T17:45:48.138Z,49.21
2023-05-21T17:48:16.621Z,49.37
2023-05-21T17:50:47.151Z,49.79
2023-05-21T17:53:16.616Z,50.51
2023-05-21T17:55:44.825Z,50.98
2023-05-21T17:58:13.409Z,51.28
2023-05-21T18:00:41.750Z,51.72
2023-05-21T18:03:10.096Z,52.23
2023-05-21T18:05:38.611Z,53.45
2023-05-21T18:08:10.177Z,54.01
2023-05-21T18:10:38.579Z,54.71
2023-05-21T18:13:06.957Z,55.57
2023-05-21T18:15:35.953Z,54.87
2023-05-21T18:18:04.705Z,56.28
2023-05-21T18:20:34.277Z,56.10
2023-05-21T18:23:03.032Z,56.35
2023-05-21T18:25:31.727Z,57.73
2023-05-21T18:28:00.604Z,56.70
2023-05-21T18:30:28.886Z,56.22
2023-05-21T18:32:57.197Z,57.69
2023-05-21T18:35:27.481Z,58.38
2023-05-21T18:37:55.760Z,58.85
2023-05-21T18:40:26.098Z,58.78
2023-05-21T18:42:55.288Z,59.62
2023-05-21T18:45:23.664Z,58.69
2023-05-21T18:47:51.855Z,58.72
2023-05-21T18:50:20.732Z,58.76
2023-05-21T18:52:51.644Z,58.94
2023-05-21T18:55:20.664Z,59.95
2023-05-21T18:57:48.948Z,59.44
2023-05-21T19:00:17.730Z,59.71
2023-05-21T19:02:46.984Z,59.63
2023-05-21T19:05:15.213Z,59.37
2023-05-21T19:07:43.898Z,59.77
2023-05-21T19:10:13.004Z,59.73
2023-05-21T19:12:42.551Z,60.07
2023-05-21T19:15:11.483Z,59.56
2023-05-21T19:17:40.213Z,59.54
2023-05-21T19:20:09.605Z,58.95
2023-05-21T19:22:38.096Z,58.59
2023-05-21T19:25:07.156Z,58.62
2023-05-21T19:27:35.627Z,58.39
2023-05-21T19:30:04.420Z,57.92
2023-05-21T19:32:32.899Z,57.81
2023-05-21T19:35:01.179Z,58.17
2023-05-21T19:37:29.455Z,58.23
2023-05-21T19:39:57.624Z,58.25
2023-05-21T19:42:25.801Z,58.45
2023-05-21T19:44:54.177Z,57.99
2023-05-21T19:47:22.895Z,58.52
2023-05-21T19:49:51.147Z,58.04
2023-05-21T19:52:19.421Z,57.82
2023-05-21T19:54:47.600Z,57.72
2023-05-21T19:57:16.280Z,57.75
2023-05-21T19:59:44.464Z,58.01
2023-05-21T20:02:15.279Z,57.61
2023-05-21T20:04:43.466Z,58.02
2023-05-21T20:07:11.651Z,58.15
2023-05-21T20:09:40.248Z,57.55
2023-05-21T20:12:09.631Z,57.23
2023-05-21T20:14:37.709Z,56.59
2023-05-21T20:17:06.466Z,56.46
2023-05-21T20:19:36.179Z,56.15
2023-05-21T20:22:05.602Z,55.82
2023-05-21T20:24:34.093Z,55.85
2023-05-21T20:27:02.382Z,55.91
2023-05-21T20:29:30.630Z,56.31
2023-05-21T20:31:59.212Z,57.03
2023-05-21T20:34:30.352Z,57.13
2023-05-21T20:36:58.739Z,57.38
2023-05-21T20:39:28.851Z,57.85
2023-05-21T20:41:58.369Z,57.38
2023-05-21T20:44:27.754Z,57.33
2023-05-21T20:46:56.034Z,56.87
2023-05-21T20:49:25.086Z,56.73
2023-05-21T20:51:54.156Z,56.15
2023-05-21T20:54:25.596Z,55.77
2023-05-21T20:56:55.387Z,55.32
2023-05-21T20:59:23.667Z,55.24
2023-05-21T21:01:52.710Z,54.72
2023-05-21T21:04:21.034Z,54.83
2023-05-21T21:06:50.553Z,54.96
2023-05-21T21:09:19.227Z,55.06
2023-05-21T21:11:47.508Z,55.03
2023-05-21T21:14:15.781Z,55.15
2023-05-21T21:16:44.206Z,55.20
2023-05-21T21:19:12.775Z,55.37
2023-05-21T21:21:41.441Z,55.48
2023-05-21T21:24:09.625Z,55.55
2023-05-21T21:26:37.782Z,55.45
2023-05-21T21:29:06.094Z,55.92
2023-05-21T21:31:34.218Z,56.14
2023-05-21T21:34:02.561Z,56.67
2023-05-21T21:36:31.604Z,56.72
2023-05-21T21:38:59.783Z,57.61
2023-05-21T21:41:29.188Z,58.27
2023-05-21T21:43:57.471Z,59.18
2023-05-21T21:46:26.524Z,59.53
2023-05-21T21:48:54.731Z,59.85
2023-05-21T21:51:23.662Z,60.13
2023-05-21T21:53:52.101Z,59.92
2023-05-21T21:56:20.277Z,60.81
2023-05-21T21:58:48.329Z,60.88
2023-05-21T22:01:16.491Z,61.02
2023-05-21T22:03:45.007Z,61.47
2023-05-21T22:06:13.186Z,61.40
2023-05-21T22:08:41.605Z,61.11
2023-05-21T22:11:09.935Z,61.73
2023-05-21T22:13:38.725Z,60.87
2023-05-21T22:16:07.926Z,61.31
2023-05-21T22:18:40.441Z,61.99
2023-05-21T22:21:14.514Z,63.19
2023-05-21T22:23:42.792Z,62.31
2023-05-21T22:26:11.067Z,63.40
2023-05-21T22:28:39.653Z,63.93
2023-05-21T22:31:08.143Z,64.16
2023-05-21T22:33:36.935Z,63.87
2023-05-21T22:36:05.973Z,64.55
2023-05-21T22:38:34.298Z,64.73
2023-05-21T22:41:03.772Z,64.35
2023-05-21T22:43:34.376Z,63.87
2023-05-21T22:46:03.185Z,65.31
2023-05-21T22:48:31.501Z,64.77
2023-05-21T22:51:02.029Z,65.25
2023-05-21T22:53:32.395Z,65.90
2023-05-21T22:56:01.478Z,66.38
2023-05-21T22:58:29.929Z,66.52
2023-05-21T23:00:58.309Z,66.44
2023-05-21T23:03:27.022Z,66.16
2023-05-21T23:05:55.372Z,66.23
2023-05-21T23:08:23.750Z,67.13
2023-05-21T23:10:51.923Z,66.69
2023-05-21T23:13:20.195Z,66.61
2023-05-21T23:15:48.678Z,66.38
2023-05-21T23:18:17.572Z,66.80
2023-05-21T23:20:45.978Z,67.16
2023-05-21T23:23:14.224Z,67.19
2023-05-21T23:25:42.406Z,67.25
2023-05-21T23:28:10.986Z,67.33
2023-05-21T23:30:39.566Z,67.06
2023-05-21T23:33:08.361Z,66.28
2023-05-21T23:35:36.838Z,67.26
2023-05-21T23:38:05.122Z,67.42
2023-05-21T23:40:33.388Z,67.42
2023-05-21T23:43:01.785Z,67.56
2023-05-21T23:45:29.893Z,67.17
2023-05-21T23:47:58.282Z,67.33
2023-05-21T23:50:26.374Z,67.80
2023-05-21T23:52:54.783Z,67.90
2023-05-21T23:55:23.079Z,67.13
2023-05-21T23:57:51.575Z,67.60
